Terminal Aerodrome Forecast
Issued by NWS Louisville, KY

Home | Current Version | Previous Version | Text Only | Print | Product List | Glossary On
Versions: 1 2 3 4 5 6 7 8 9 10 11 12 13
082
FTUS43 KLMK 282324
TAFSDF
TAF
KSDF 282324Z 2900/3006 18010KT 6SM -SHRA VCTS BKN035CB
     FM290700 VRB10G20KT 3SM -TSRA BKN040CB
     FM291100 18010KT P6SM VCSH FEW020 BKN040
     FM291500 19013G23KT P6SM SCT035=

USA.gov is the U.S. government's official web portal to all federal, state and local government web resources and services.